Time;durP1;ratioP1;P1;durP2;ratioP2;P2;SDS_P1;SDS_P2;PMS_P1;PMS_P2;Temp;Humidity;BMP_temperature;BMP_pressure;BME280_temperature;BME280_humidity;BME280_pressure;Samples;Min_cycle;Max_cycle;Signal;HPM_P1;HPM_P2
2022/09/25 00:00:43;;;;;;;1.50;1.05;;;;;;;11.89;79.07;101765.47;5034419;27;96471;-29
2022/09/25 00:03:10;;;;;;;2.72;1.23;;;;;;;11.85;79.67;101759.31;5034837;27;96862;-29
2022/09/25 00:05:38;;;;;;;3.50;1.45;;;;;;;11.83;79.49;101765.78;5033957;27;101262;-29
2022/09/25 00:08:04;;;;;;;1.88;1.15;;;;;;;11.78;79.50;101766.00;5034340;27;100953;-30
2022/09/25 00:10:30;;;;;;;2.50;1.30;;;;;;;11.76;79.26;101775.19;5033832;27;96881;-30
2022/09/25 00:12:55;;;;;;;2.45;1.17;;;;;;;11.70;79.64;101776.38;5052632;27;96825;-29
2022/09/25 00:15:21;;;;;;;4.25;1.33;;;;;;;11.71;79.80;101777.28;5052689;27;98003;-29
2022/09/25 00:17:46;;;;;;;2.47;1.30;;;;;;;11.68;79.69;101778.31;5052440;27;97905;-30
2022/09/25 00:20:13;;;;;;;3.67;1.30;;;;;;;11.64;79.87;101776.72;5052059;27;96813;-29
2022/09/25 00:22:38;;;;;;;5.18;1.33;;;;;;;11.64;79.79;101784.84;5052313;27;96719;-30
2022/09/25 00:25:05;;;;;;;3.80;1.42;;;;;;;11.66;79.75;101785.66;5034062;27;99039;-30
2022/09/25 00:27:31;;;;;;;5.03;1.13;;;;;;;11.65;79.84;101779.31;5053024;27;97450;-29
2022/09/25 00:29:58;;;;;;;1.75;1.30;;;;;;;11.64;79.73;101782.13;5052071;27;97252;-29
2022/09/25 00:32:24;;;;;;;2.05;1.17;;;;;;;11.60;79.66;101780.53;5052126;27;96854;-30
2022/09/25 00:34:49;;;;;;;1.63;1.05;;;;;;;11.57;80.09;101777.97;5051868;27;97964;-29
2022/09/25 00:37:15;;;;;;;2.03;1.20;;;;;;;11.56;79.70;101784.34;5052330;27;97877;-29
2022/09/25 00:39:40;;;;;;;1.58;1.00;;;;;;;11.51;79.86;101779.16;5052433;27;96565;-29
2022/09/25 00:42:05;;;;;;;5.63;1.83;;;;;;;11.46;79.75;101765.84;5052600;27;96756;-30
2022/09/25 00:44:57;;;;;;;1.60;1.10;;;;;;;11.47;80.08;101777.56;5052080;27;97923;-30
2022/09/25 00:47:42;;;;;;;1.88;1.02;;;;;;;11.43;79.93;101786.81;5033535;27;101195;-29
2022/09/25 00:50:23;;;;;;;2.85;1.38;;;;;;;11.39;79.93;101783.38;5051689;27;96840;-29
2022/09/25 00:52:52;;;;;;;3.42;1.35;;;;;;;11.37;80.01;101777.16;5034292;27;97157;-29
2022/09/25 00:55:18;;;;;;;2.03;1.10;;;;;;;11.34;80.09;101774.56;5033464;27;100887;-30
2022/09/25 00:57:48;;;;;;;2.78;1.20;;;;;;;11.35;80.13;101773.63;5054378;27;97745;-31
2022/09/25 01:00:14;;;;;;;5.57;1.05;;;;;;;11.32;80.06;101773.78;5036840;27;97144;-30
2022/09/25 01:02:49;;;;;;;2.33;1.25;;;;;;;11.31;80.28;101780.16;5037068;27;97070;-31
2022/09/25 01:05:18;;;;;;;1.75;1.02;;;;;;;11.31;80.16;101774.72;5055508;27;97948;-29
2022/09/25 01:07:46;;;;;;;4.35;1.40;;;;;;;11.29;80.29;101776.63;5036983;27;101102;-30
2022/09/25 01:10:13;;;;;;;4.28;1.52;;;;;;;11.29;80.36;101773.94;5036826;27;97179;-29
2022/09/25 01:12:42;;;;;;;5.03;1.30;;;;;;;11.29;80.26;101776.63;5036862;27;97039;-31
2022/09/25 01:15:11;;;;;;;1.42;0.65;;;;;;;11.25;80.24;101778.63;5036846;27;100937;-30
2022/09/25 01:18:14;;;;;;;3.33;0.98;;;;;;;11.26;80.30;101772.25;5037798;27;98142;-29
2022/09/25 01:21:07;;;;;;;4.45;1.00;;;;;;;11.25;80.72;101766.91;5008640;27;96981;-29
2022/09/25 01:24:05;;;;;;;3.30;1.08;;;;;;;11.21;80.70;101768.00;5055564;27;96876;-30
2022/09/25 01:26:42;;;;;;;2.38;0.98;;;;;;;11.18;80.71;101774.47;5054735;27;98444;-29
2022/09/25 01:29:18;;;;;;;1.92;0.73;;;;;;;11.17;80.81;101767.28;5055104;27;98056;-30
2022/09/25 01:31:52;;;;;;;1.52;0.90;;;;;;;11.15;80.77;101765.59;5054851;27;96612;-29
2022/09/25 01:34:28;;;;;;;1.05;0.65;;;;;;;11.12;80.69;101769.34;5055386;27;96772;-29
2022/09/25 01:37:04;;;;;;;1.88;0.90;;;;;;;11.08;80.69;101774.97;5055134;27;97993;-29
2022/09/25 01:39:40;;;;;;;2.15;0.98;;;;;;;11.04;80.75;101766.13;5036388;27;103249;-31
2022/09/25 01:42:17;;;;;;;2.70;0.90;;;;;;;11.04;80.86;101776.97;5036748;27;96547;-30
2022/09/25 01:44:48;;;;;;;2.47;0.70;;;;;;;11.04;80.87;101777.84;5036913;27;96804;-29
2022/09/25 01:47:25;;;;;;;1.70;0.87;;;;;;;11.05;80.63;101778.72;5055017;27;97398;-30
2022/09/25 01:49:57;;;;;;;5.85;1.08;;;;;;;11.01;80.33;101775.31;5036006;27;101031;-30
2022/09/25 01:52:31;;;;;;;0.90;0.55;;;;;;;10.98;80.89;101772.72;5035932;27;97150;-29
2022/09/25 01:55:09;;;;;;;2.92;1.10;;;;;;;10.98;80.38;101782.69;5036576;27;96742;-29
2022/09/25 01:58:02;;;;;;;3.42;0.85;;;;;;;10.98;80.75;101779.97;5054819;27;97981;-30
2022/09/25 02:00:27;;;;;;;2.10;1.00;;;;;;;10.92;80.58;101778.44;5036336;27;100968;-29
2022/09/25 02:03:20;;;;;;;2.53;1.27;;;;;;;10.95;80.99;101789.13;5054852;27;96413;-29
2022/09/25 02:05:52;;;;;;;4.88;0.95;;;;;;;10.90;80.68;101783.06;5054474;27;96657;-29
2022/09/25 02:08:23;;;;;;;1.27;1.02;;;;;;;10.89;80.78;101789.41;5035470;27;101195;-29
2022/09/25 02:10:55;;;;;;;2.20;1.00;;;;;;;10.86;80.62;101786.88;5036362;27;100724;-29
2022/09/25 02:13:25;;;;;;;9.32;1.45;;;;;;;10.80;80.84;101777.22;5035930;27;96599;-29
2022/09/25 02:16:04;;;;;;;2.35;0.95;;;;;;;10.80;80.97;101782.63;5036054;27;96705;-30
2022/09/25 02:21:43;;;;;;;0.90;0.60;;;;;;;10.74;81.42;101776.63;5053874;27;97045;-29
2022/09/25 02:24:25;;;;;;;2.30;0.93;;;;;;;10.75;81.42;101776.56;5036146;27;96669;-29
2022/09/25 02:26:51;;;;;;;2.20;0.88;;;;;;;10.76;81.23;101777.41;5035838;27;96830;-30
2022/09/25 02:29:18;;;;;;;1.50;0.85;;;;;;;10.78;81.22;101778.22;5035423;27;101100;-31
2022/09/25 02:32:09;;;;;;;0.93;0.73;;;;;;;10.77;81.33;101773.75;5035498;27;101126;-29
2022/09/25 02:34:35;;;;;;;1.30;0.85;;;;;;;10.75;81.48;101775.66;5049263;27;96467;-32
2022/09/25 02:37:01;;;;;;;1.48;0.80;;;;;;;10.73;81.29;101774.88;5036138;27;96798;-30
2022/09/25 02:39:29;;;;;;;4.40;0.90;;;;;;;10.71;81.43;101774.06;5054275;27;97250;-29
2022/09/25 02:42:05;;;;;;;2.55;0.85;;;;;;;10.71;81.45;101776.75;5035491;27;100757;-30
2022/09/25 02:45:06;;;;;;;4.22;1.10;;;;;;;10.73;81.61;101774.88;5053703;27;96633;-30
2022/09/25 02:47:49;;;;;;;0.85;0.47;;;;;;;10.70;81.79;101777.69;5035731;27;96886;-30
2022/09/25 02:50:28;;;;;;;4.70;0.95;;;;;;;10.70;81.66;101772.28;5053621;27;97967;-30
2022/09/25 02:53:14;;;;;;;1.40;0.70;;;;;;;10.70;81.70;101775.00;5035483;27;99363;-29
2022/09/25 02:55:48;;;;;;;2.78;1.20;;;;;;;10.65;81.76;101766.19;5035645;27;96637;-29
2022/09/25 02:58:37;;;;;;;1.27;0.85;;;;;;;10.66;81.60;101770.69;5035473;27;96538;-29
2022/09/25 03:01:06;;;;;;;1.65;0.88;;;;;;;10.65;81.45;101771.63;5035181;27;101497;-29
2022/09/25 03:03:34;;;;;;;2.58;0.98;;;;;;;10.66;81.56;101778.81;5053753;27;98753;-29
2022/09/25 03:06:01;;;;;;;1.30;0.80;;;;;;;10.65;81.52;101783.34;5053707;27;96577;-29
2022/09/25 03:08:36;;;;;;;0.80;0.60;;;;;;;10.67;81.58;101780.56;5035431;27;96721;-29
2022/09/25 03:11:04;;;;;;;1.33;0.75;;;;;;;10.72;81.84;101789.34;5034480;27;101745;-29
2022/09/25 03:13:32;;;;;;;2.08;0.70;;;;;;;10.71;81.57;101774.94;5053153;27;97891;-29
2022/09/25 03:16:04;;;;;;;1.92;0.85;;;;;;;10.73;81.70;101786.56;5035191;27;96551;-29
2022/09/25 03:18:30;;;;;;;1.20;0.70;;;;;;;10.73;81.79;101783.88;5053475;27;96757;-29
2022/09/25 03:20:56;;;;;;;1.13;0.70;;;;;;;10.75;81.79;101779.25;5033162;27;101025;-30
2022/09/25 03:23:21;;;;;;;3.80;0.98;;;;;;;10.78;81.74;101778.22;5053403;27;97760;-30
2022/09/25 03:25:46;;;;;;;1.27;0.85;;;;;;;10.81;81.91;101780.78;5053065;27;96578;-30
2022/09/25 03:28:14;;;;;;;0.90;0.73;;;;;;;10.83;81.70;101773.47;5035277;27;96922;-29
2022/09/25 03:30:39;;;;;;;2.83;0.70;;;;;;;10.87;81.74;101779.59;5052967;27;97791;-29
2022/09/25 03:33:10;;;;;;;1.55;0.88;;;;;;;10.88;81.82;101779.53;5053160;27;98273;-30
2022/09/25 03:35:39;;;;;;;1.10;0.75;;;;;;;10.87;81.67;101764.25;5034384;27;97047;-29
2022/09/25 03:38:07;;;;;;;0.73;0.55;;;;;;;10.93;81.60;101776.63;5053047;27;96751;-30
2022/09/25 03:40:32;;;;;;;0.52;0.50;;;;;;;10.93;81.58;101780.19;5034688;27;101728;-29
2022/09/25 03:42:58;;;;;;;2.33;0.95;;;;;;;10.92;81.92;101778.44;5052974;27;97344;-29
2022/09/25 03:45:23;;;;;;;1.67;0.90;;;;;;;10.96;82.04;101784.59;5052903;27;96742;-29
2022/09/25 03:47:49;;;;;;;2.75;0.70;;;;;;;10.94;81.67;101768.41;5052998;27;96802;-29
2022/09/25 03:50:14;;;;;;;1.13;0.68;;;;;;;10.98;81.65;101769.13;5053059;27;97502;-30
2022/09/25 03:52:39;;;;;;;1.80;0.57;;;;;;;11.00;81.94;101770.81;5053157;27;97984;-29
2022/09/25 03:55:05;;;;;;;1.70;0.93;;;;;;;11.01;81.93;101761.75;5053005;27;96562;-31
2022/09/25 03:57:31;;;;;;;4.13;0.82;;;;;;;11.03;81.90;101761.66;5034647;27;96867;-29
2022/09/25 04:00:00;;;;;;;3.58;0.50;;;;;;;11.08;81.72;101761.44;5052282;27;97888;-30
2022/09/25 04:02:27;;;;;;;2.08;0.60;;;;;;;11.08;81.84;101756.00;5052559;27;99323;-29
2022/09/25 04:04:53;;;;;;;0.25;0.25;;;;;;;11.08;81.94;101751.44;5034336;27;96558;-29
2022/09/25 04:07:20;;;;;;;0.32;0.30;;;;;;;11.09;81.86;101753.22;5034218;27;97238;-29
2022/09/25 04:09:45;;;;;;;3.75;0.60;;;;;;;11.10;81.79;101752.25;5034341;27;101524;-29
2022/09/25 04:12:11;;;;;;;2.97;0.90;;;;;;;11.13;81.91;101748.50;5052208;27;98686;-29
2022/09/25 04:14:37;;;;;;;1.73;0.88;;;;;;;11.10;81.72;101748.69;5052576;27;96474;-30
2022/09/25 04:17:03;;;;;;;0.75;0.52;;;;;;;11.10;81.98;101745.97;5017886;27;96694;-30
2022/09/25 04:19:28;;;;;;;3.03;0.50;;;;;;;11.13;82.13;101743.09;5052016;27;97462;-29
2022/09/25 04:21:53;;;;;;;3.35;1.00;;;;;;;11.08;81.96;101734.31;5052834;27;97233;-29
2022/09/25 04:27:03;;;;;;;0.80;0.43;;;;;;;11.12;82.45;101750.34;5052751;27;96576;-29
2022/09/25 04:29:29;;;;;;;1.35;0.75;;;;;;;11.10;82.13;101736.00;5052491;27;97990;-29
2022/09/25 04:34:38;;;;;;;0.77;0.63;;;;;;;11.09;82.27;101738.81;5056306;27;96494;-29
2022/09/25 04:37:04;;;;;;;1.05;0.70;;;;;;;11.07;82.01;101738.88;5055936;27;98081;-29
2022/09/25 04:39:29;;;;;;;1.05;0.77;;;;;;;11.03;82.23;101738.13;5055954;27;97653;-29
2022/09/25 04:41:54;;;;;;;1.42;0.90;;;;;;;10.99;82.16;101736.53;5056110;27;100125;-29
2022/09/25 04:44:20;;;;;;;1.23;0.68;;;;;;;10.96;82.17;101722.25;5056120;27;96492;-29
2022/09/25 04:46:45;;;;;;;1.25;0.57;;;;;;;10.96;82.08;101733.09;5055563;27;96886;-30
2022/09/25 04:49:10;;;;;;;3.92;0.60;;;;;;;10.95;82.35;101729.50;5055020;27;98073;-29
2022/09/25 04:51:36;;;;;;;1.00;0.57;;;;;;;10.95;82.31;101729.50;5056025;27;97410;-30
2022/09/25 04:54:01;;;;;;;1.23;0.55;;;;;;;10.92;82.31;101726.94;5055627;27;96503;-30
2022/09/25 04:56:26;;;;;;;1.02;0.60;;;;;;;10.89;82.26;101728.91;5056015;27;96832;-30
2022/09/25 04:58:52;;;;;;;0.43;0.43;;;;;;;10.87;82.25;101731.72;5055309;27;99156;-29
2022/09/25 05:01:19;;;;;;;0.68;0.45;;;;;;;10.87;82.48;101737.16;5055469;27;99100;-30
2022/09/25 05:03:49;;;;;;;3.95;0.30;;;;;;;10.86;82.32;101737.19;5037144;27;96969;-29
2022/09/25 05:06:14;;;;;;;3.78;0.45;;;;;;;10.86;82.34;101732.66;5037454;27;96973;-29
2022/09/25 05:08:40;;;;;;;1.67;0.50;;;;;;;10.84;82.39;101737.28;5055582;27;97894;-29
2022/09/25 05:11:06;;;;;;;0.77;0.40;;;;;;;10.80;82.41;101739.25;5055018;27;101569;-29
2022/09/25 05:13:32;;;;;;;0.75;0.50;;;;;;;10.80;82.26;101741.09;5054826;27;96960;-30
2022/09/25 05:15:57;;;;;;;1.52;0.55;;;;;;;10.80;82.27;101746.53;5055426;27;96749;-32
2022/09/25 05:18:23;;;;;;;2.90;0.60;;;;;;;10.79;82.49;101753.75;5055335;27;97374;-29
2022/09/25 05:20:49;;;;;;;1.17;0.77;;;;;;;10.78;82.27;101745.72;5036386;27;101177;-29
2022/09/25 05:23:15;;;;;;;2.35;0.95;;;;;;;10.77;82.50;101743.94;5036805;27;96718;-29
2022/09/25 05:25:40;;;;;;;0.75;0.60;;;;;;;10.76;82.49;101742.19;5036745;27;97029;-29
2022/09/25 05:28:06;;;;;;;1.48;0.60;;;;;;;10.73;82.35;101739.63;5054910;27;99394;-29
2022/09/25 05:30:33;;;;;;;3.08;0.98;;;;;;;10.74;82.51;101741.38;5054942;27;97956;-30
2022/09/25 05:32:58;;;;;;;0.32;0.30;;;;;;;10.76;82.67;101747.63;5055013;27;96705;-30
2022/09/25 05:35:26;;;;;;;1.40;0.65;;;;;;;10.74;82.58;101739.53;5055316;27;96765;-29
2022/09/25 05:37:51;;;;;;;1.02;0.52;;;;;;;10.72;82.47;101737.88;5036085;27;100849;-29
2022/09/25 05:40:19;;;;;;;1.50;0.60;;;;;;;10.70;82.58;101735.25;5054665;27;99787;-28
2022/09/25 05:42:46;;;;;;;0.38;0.28;;;;;;;10.70;82.54;101739.75;5054359;27;96604;-29
2022/09/25 05:45:13;;;;;;;0.55;0.35;;;;;;;10.70;82.44;101739.75;5036186;27;97034;-29
2022/09/25 05:47:40;;;;;;;0.68;0.55;;;;;;;10.67;82.62;101734.50;5036360;27;99883;-30
2022/09/25 05:50:08;;;;;;;1.42;0.63;;;;;;;10.67;82.61;101726.38;5036575;27;100900;-32
2022/09/25 05:52:34;;;;;;;6.55;1.00;;;;;;;10.65;82.50;101728.28;5036457;27;96665;-31
2022/09/25 05:54:59;;;;;;;0.68;0.50;;;;;;;10.62;82.85;101726.59;5055325;27;96873;-29
2022/09/25 05:57:26;;;;;;;1.90;0.85;;;;;;;10.64;83.01;101730.09;5054452;27;101252;-31
2022/09/25 05:59:52;;;;;;;0.90;0.57;;;;;;;10.66;82.96;101736.34;5035996;27;101028;-30
2022/09/25 06:02:17;;;;;;;0.73;0.57;;;;;;;10.65;82.65;101733.69;5036111;27;96655;-29
2022/09/25 06:04:42;;;;;;;1.08;0.77;;;;;;;10.62;82.49;101727.47;5054768;27;96825;-29
2022/09/25 06:07:08;;;;;;;1.95;0.50;;;;;;;10.61;82.43;101724.84;5054231;27;98883;-29
2022/09/25 06:09:34;;;;;;;1.25;0.55;;;;;;;10.62;82.60;101737.44;5054313;27;99591;-29
2022/09/25 06:12:01;;;;;;;0.60;0.43;;;;;;;10.63;82.62;101736.50;5054548;27;96579;-29
2022/09/25 06:14:26;;;;;;;2.38;0.73;;;;;;;10.64;82.45;101740.94;5035906;27;96738;-29
2022/09/25 06:16:52;;;;;;;0.82;0.47;;;;;;;10.65;82.22;101737.28;5054397;27;97900;-29
2022/09/25 06:19:17;;;;;;;0.45;0.45;;;;;;;10.66;82.81;101746.31;5054665;27;97869;-29
2022/09/25 06:21:43;;;;;;;1.90;0.90;;;;;;;10.73;82.64;101753.19;5036143;27;96727;-29
2022/09/25 06:24:09;;;;;;;1.08;0.63;;;;;;;10.75;82.66;101752.16;5054448;27;96760;-31
2022/09/25 06:26:35;;;;;;;1.85;0.60;;;;;;;10.80;82.41;101757.38;5035311;27;101117;-29
2022/09/25 06:29:01;;;;;;;1.65;0.70;;;;;;;10.83;82.26;101757.22;5035584;27;100794;-29
2022/09/25 06:31:26;;;;;;;11.00;1.17;;;;;;;10.90;82.35;101757.78;5053765;27;96969;-29
2022/09/25 06:33:51;;;;;;;1.65;0.88;;;;;;;10.93;82.10;101750.38;5053585;27;105450;-29
2022/09/25 06:36:17;;;;;;;1.38;0.80;;;;;;;11.02;82.14;101755.34;5054109;27;97893;-29
2022/09/25 06:38:42;;;;;;;1.00;0.50;;;;;;;11.07;82.19;101760.56;5054206;27;97362;-29
2022/09/25 06:41:07;;;;;;;1.20;0.90;;;;;;;11.09;81.99;101753.22;5054241;27;96681;-29
2022/09/25 06:43:32;;;;;;;1.30;0.65;;;;;;;11.12;81.95;101752.19;5054124;27;106310;-30
2022/09/25 06:46:01;;;;;;;0.40;0.40;;;;;;;11.15;81.98;101752.03;5053410;27;109710;-31
2022/09/25 06:48:26;;;;;;;0.90;0.60;;;;;;;11.18;82.00;101757.34;5035572;27;101265;-30
2022/09/25 06:50:54;;;;;;;3.63;0.70;;;;;;;11.21;81.84;101758.03;5053564;27;96574;-29
2022/09/25 06:53:20;;;;;;;0.82;0.57;;;;;;;11.22;81.98;101753.50;5035529;27;96901;-29
2022/09/25 06:55:46;;;;;;;2.22;0.57;;;;;;;11.24;82.04;101763.31;5035169;27;100812;-29
2022/09/25 06:58:15;;;;;;;1.42;0.52;;;;;;;11.27;81.86;101756.84;5053435;27;99238;-30
2022/09/25 07:00:45;;;;;;;1.05;0.50;;;;;;;11.31;81.85;101757.59;5035314;27;96708;-29
2022/09/25 07:05:54;;;;;;;0.22;0.22;;;;;;;11.37;81.81;101758.16;5053710;27;97110;-28
2022/09/25 07:08:22;;;;;;;1.70;0.60;;;;;;;11.39;81.85;101761.69;5053873;27;101638;-29
2022/09/25 07:10:52;;;;;;;3.40;0.50;;;;;;;11.44;81.71;101761.41;5034894;27;96686;-29
2022/09/25 07:13:26;;;;;;;2.40;0.75;;;;;;;11.47;81.71;101756.72;5053221;27;96807;-29
2022/09/25 07:16:01;;;;;;;1.77;0.68;;;;;;;11.55;81.52;101760.91;5052775;27;99352;-29
2022/09/25 07:18:28;;;;;;;1.42;0.70;;;;;;;11.57;81.60;101753.56;5034971;27;100932;-29
2022/09/25 07:21:03;;;;;;;1.23;0.57;;;;;;;11.63;81.38;101753.22;5034678;27;96940;-30
2022/09/25 07:23:30;;;;;;;1.40;0.70;;;;;;;11.68;81.31;101749.34;5053329;27;96654;-29
2022/09/25 07:25:56;;;;;;;1.73;0.63;;;;;;;11.76;81.95;101753.50;5034848;27;100843;-29
2022/09/25 07:28:21;;;;;;;0.60;0.52;;;;;;;11.81;81.52;101763.13;5034689;27;100907;-29
2022/09/25 07:30:48;;;;;;;1.23;0.60;;;;;;;11.84;81.54;101754.81;5053027;27;97182;-30
2022/09/25 07:33:13;;;;;;;1.58;1.00;;;;;;;11.87;82.39;101746.56;5053668;27;96682;-29
2022/09/25 07:35:39;;;;;;;1.00;0.65;;;;;;;11.94;82.48;101758.00;5052672;27;99372;-30
2022/09/25 07:38:04;;;;;;;3.50;0.57;;;;;;;11.98;81.90;101753.25;5052946;27;99329;-30
2022/09/25 07:40:30;;;;;;;0.95;0.52;;;;;;;12.05;81.13;101754.69;5052589;27;98946;-29
2022/09/25 07:43:14;;;;;;;3.72;0.45;;;;;;;12.14;81.20;101764.19;5034827;27;96770;-29
2022/09/25 07:45:40;;;;;;;1.83;0.70;;;;;;;12.20;80.58;101759.28;5052884;27;103513;-29
2022/09/25 07:48:05;;;;;;;4.97;0.75;;;;;;;12.25;80.35;101753.63;5052792;27;97893;-28
2022/09/25 07:50:31;;;;;;;1.05;0.52;;;;;;;12.31;80.24;101754.16;5052792;27;96559;-29
2022/09/25 07:52:57;;;;;;;1.73;0.55;;;;;;;12.40;80.30;101757.38;5034724;27;96882;-30
2022/09/25 07:55:23;;;;;;;0.82;0.50;;;;;;;12.43;80.16;101757.19;5052830;27;97476;-28
2022/09/25 07:57:49;;;;;;;4.38;0.55;;;;;;;12.50;80.39;101759.47;5034734;27;100732;-29
2022/09/25 08:00:15;;;;;;;1.85;0.80;;;;;;;12.58;79.84;101759.03;5034701;27;96526;-29
2022/09/25 08:02:41;;;;;;;2.83;0.93;;;;;;;12.67;80.16;101763.97;5034226;27;96897;-29
2022/09/25 08:05:06;;;;;;;0.60;0.35;;;;;;;12.76;79.85;101768.03;5052201;27;98217;-29
2022/09/25 08:07:32;;;;;;;1.25;0.65;;;;;;;12.93;79.71;101764.34;5051652;27;97400;-29
2022/09/25 08:09:57;;;;;;;1.15;0.63;;;;;;;13.17;78.79;101757.50;5052437;27;103668;-30
2022/09/25 08:12:24;;;;;;;0.90;0.50;;;;;;;13.35;78.51;101766.47;5052461;27;96860;-29
2022/09/25 08:14:50;;;;;;;1.45;0.50;;;;;;;13.52;77.57;101764.63;5052671;27;97917;-30
2022/09/25 08:17:15;;;;;;;2.42;0.68;;;;;;;13.66;77.30;101761.94;5033928;27;101175;-31
2022/09/25 08:19:40;;;;;;;2.42;0.80;;;;;;;13.77;77.60;101769.44;5052194;27;96655;-29
2022/09/25 08:22:06;;;;;;;4.30;0.63;;;;;;;13.81;76.71;101768.31;5052906;27;96700;-31
2022/09/25 08:24:31;;;;;;;0.55;0.35;;;;;;;13.75;76.12;101755.94;5052605;27;98636;-29
2022/09/25 08:26:56;;;;;;;1.38;0.30;;;;;;;13.77;76.24;101764.00;5033874;27;99261;-29
2022/09/25 08:29:23;;;;;;;0.98;0.45;;;;;;;13.79;76.00;101773.84;5052018;27;96434;-31
2022/09/25 08:31:49;;;;;;;0.10;0.10;;;;;;;13.77;75.73;101766.72;5051914;27;96774;-29
2022/09/25 08:34:15;;;;;;;2.05;0.68;;;;;;;13.83;76.12;101765.50;5052165;27;99337;-28
2022/09/25 08:36:40;;;;;;;4.97;0.50;;;;;;;13.82;75.66;101753.72;5033873;27;100811;-31
2022/09/25 08:39:06;;;;;;;1.95;0.75;;;;;;;13.88;75.60;101755.19;5052168;27;96516;-30
2022/09/25 08:41:39;;;;;;;2.08;0.52;;;;;;;13.91;75.44;101746.84;5052167;27;96689;-29
2022/09/25 08:44:27;;;;;;;1.85;0.50;;;;;;;14.00;75.48;101757.16;5033865;27;101153;-30
2022/09/25 08:49:57;;;;;;;2.40;0.43;;;;;;;14.03;75.73;101756.97;5052432;27;96639;-29
2022/09/25 08:52:23;;;;;;;2.60;0.32;;;;;;;14.08;75.64;101753.97;5033798;27;96775;-29
2022/09/25 08:54:50;;;;;;;3.75;0.65;;;;;;;14.13;75.45;101751.81;5051205;27;99639;-28
2022/09/25 08:57:28;;;;;;;2.67;0.45;;;;;;;14.18;74.67;101752.41;5033485;27;100680;-29
2022/09/25 09:00:01;;;;;;;1.90;0.32;;;;;;;14.24;74.66;101755.63;5052004;27;96597;-30
2022/09/25 09:02:38;;;;;;;1.52;0.52;;;;;;;14.32;74.33;101746.09;5052348;27;96501;-30
2022/09/25 09:05:13;;;;;;;2.80;0.52;;;;;;;14.39;73.86;101747.47;5033588;27;100697;-29
2022/09/25 09:07:42;;;;;;;1.75;0.60;;;;;;;14.43;73.52;101751.75;5051846;27;99168;-30
2022/09/25 09:10:29;;;;;;;1.83;0.40;;;;;;;14.51;73.27;101752.13;5033487;27;96762;-29
2022/09/25 09:13:05;;;;;;;0.20;0.20;;;;;;;14.67;72.59;101751.22;5033740;27;96872;-30
2022/09/25 09:15:39;;;;;;;1.35;0.43;;;;;;;14.72;72.85;101743.59;5033457;27;100826;-31
2022/09/25 09:18:20;;;;;;;0.25;0.20;;;;;;;14.73;72.65;101738.06;5053431;27;97352;-29
2022/09/25 09:20:53;;;;;;;0.57;0.40;;;;;;;14.69;71.74;101750.13;5035960;27;96801;-29
2022/09/25 09:23:26;;;;;;;5.57;0.40;;;;;;;14.71;71.96;101750.03;5055514;27;96523;-29
2022/09/25 09:26:02;;;;;;;0.55;0.20;;;;;;;14.85;72.92;101755.47;5036764;27;101132;-29
2022/09/25 09:28:54;;;;;;;1.73;0.40;;;;;;;15.02;71.64;101743.47;5037028;27;101248;-29
2022/09/25 09:31:22;;;;;;;1.05;0.30;;;;;;;15.10;70.82;101740.22;5036687;27;97741;-29
2022/09/25 09:34:03;;;;;;;2.25;0.30;;;;;;;15.08;70.91;101740.31;5036789;27;96593;-29
2022/09/25 09:36:47;;;;;;;1.02;0.32;;;;;;;15.02;71.93;101743.47;5055140;27;97544;-31
2022/09/25 09:39:31;;;;;;;0.30;0.17;;;;;;;14.89;71.94;101746.09;5055214;27;98751;-30
2022/09/25 09:42:16;;;;;;;0.65;0.30;;;;;;;14.75;71.45;101755.16;5036877;27;96552;-29
2022/09/25 09:44:59;;;;;;;1.13;0.20;;;;;;;14.62;71.24;101749.66;5054806;27;96892;-29
2022/09/25 09:47:52;;;;;;;2.60;0.38;;;;;;;14.50;71.45;101753.13;5035906;27;101003;-28
2022/09/25 09:50:43;;;;;;;2.55;0.30;;;;;;;14.45;71.80;101753.41;5054136;27;97749;-29
2022/09/25 09:53:39;;;;;;;0.20;0.10;;;;;;;14.44;72.37;101757.13;5054715;27;96730;-29
2022/09/25 09:56:30;;;;;;;0.80;0.28;;;;;;;14.53;72.32;101752.06;5036390;27;96767;-28
2022/09/25 09:58:59;;;;;;;5.10;0.47;;;;;;;15.02;71.35;101746.19;5036411;27;101486;-29
2022/09/25 10:01:29;;;;;;;0.20;0.20;;;;;;;15.64;69.68;101743.81;5036167;27;100814;-30
2022/09/25 10:04:05;;;;;;;0.32;0.13;;;;;;;16.21;66.90;101741.72;5036398;27;96704;-28
2022/09/25 10:06:36;;;;;;;0.75;0.40;;;;;;;16.76;66.93;101740.47;5036615;27;96773;-29
2022/09/25 10:09:01;;;;;;;0.77;0.40;;;;;;;17.24;65.20;101737.84;5036066;27;100988;-28
2022/09/25 10:11:30;;;;;;;1.80;0.35;;;;;;;17.51;62.48;101734.00;5054281;27;99440;-29
2022/09/25 10:13:58;;;;;;;2.15;0.35;;;;;;;17.87;63.07;101727.53;5035245;27;96978;-29
2022/09/25 10:16:25;;;;;;;0.75;0.30;;;;;;;18.03;63.23;101735.44;5036332;27;96787;-29
2022/09/25 10:18:56;;;;;;;1.73;0.43;;;;;;;17.98;62.54;101729.47;5035872;27;100849;-28
2022/09/25 10:21:30;;;;;;;4.57;0.60;;;;;;;17.56;63.02;101739.97;5035343;27;101017;-30
2022/09/25 10:23:57;;;;;;;2.38;1.20;;;;;;;17.16;64.21;101737.53;5036229;27;96666;-29
2022/09/25 10:26:24;;;;;;;0.88;0.30;;;;;;;16.87;65.76;101739.72;5035576;27;96918;-28
2022/09/25 10:28:50;;;;;;;0.10;0.08;;;;;;;16.60;66.41;101737.13;5035333;27;101419;-29
2022/09/25 10:31:17;;;;;;;2.25;0.40;;;;;;;16.50;67.21;101725.97;5054384;27;97408;-29
2022/09/25 10:33:58;;;;;;;1.58;0.77;;;;;;;17.02;66.02;101730.38;5035795;27;96626;-28
2022/09/25 10:36:44;;;;;;;2.30;0.50;;;;;;;17.32;64.90;101727.16;5035971;27;96798;-29
2022/09/25 10:39:30;;;;;;;4.35;0.47;;;;;;;17.91;63.97;101720.84;5035059;27;100768;-28
2022/09/25 10:41:57;;;;;;;0.85;0.30;;;;;;;18.35;62.03;101712.78;5054031;27;97989;-28
2022/09/25 10:44:33;;;;;;;1.75;0.45;;;;;;;18.70;59.16;101715.41;5035684;27;96635;-30
2022/09/25 10:50:21;;;;;;;0.50;0.30;;;;;;;19.07;59.34;101710.53;5051785;27;97068;-28
2022/09/25 10:52:52;;;;;;;0.52;0.25;;;;;;;18.67;61.23;101713.78;5053835;27;98945;-29
2022/09/25 10:55:29;;;;;;;0.43;0.25;;;;;;;18.17;61.63;101716.03;5053837;27;96442;-29
2022/09/25 10:58:09;;;;;;;2.20;0.50;;;;;;;17.85;61.88;101718.56;5035984;27;96863;-29
2022/09/25 11:00:53;;;;;;;1.13;0.38;;;;;;;17.55;61.71;101710.84;5053496;27;99457;-29
2022/09/25 11:03:27;;;;;;;1.02;0.22;;;;;;;17.26;64.13;101711.22;5053752;27;97864;-29
2022/09/25 11:05:56;;;;;;;1.60;0.45;;;;;;;17.07;64.70;101724.56;5034744;27;97073;-29
2022/09/25 11:08:31;;;;;;;2.53;0.47;;;;;;;16.83;65.42;101727.22;5035107;27;97035;-28
2022/09/25 11:10:59;;;;;;;0.32;0.25;;;;;;;16.64;66.03;101716.78;5053612;27;98000;-30
2022/09/25 11:13:36;;;;;;;1.50;0.40;;;;;;;16.48;67.02;101717.00;5035113;27;99139;-29
2022/09/25 11:16:09;;;;;;;1.10;0.43;;;;;;;16.35;66.44;101717.00;5035414;27;96630;-29
2022/09/25 11:18:45;;;;;;;2.03;0.60;;;;;;;16.21;67.74;101725.31;5053508;27;96593;-29
2022/09/25 11:21:16;;;;;;;2.05;0.63;;;;;;;16.08;67.50;101722.59;5052512;27;98824;-29
2022/09/25 11:23:56;;;;;;;0.22;0.20;;;;;;;15.97;68.08;101706.06;5053549;27;99179;-30
2022/09/25 11:26:31;;;;;;;2.47;0.45;;;;;;;15.96;67.83;101698.88;5034998;27;96701;-31
2022/09/25 11:29:15;;;;;;;1.23;0.45;;;;;;;16.38;67.86;101703.13;5035062;27;96763;-30
2022/09/25 11:31:56;;;;;;;0.50;0.30;;;;;;;17.12;66.23;101703.19;5052746;27;97971;-29
2022/09/25 11:34:39;;;;;;;0.95;0.50;;;;;;;17.52;64.73;101691.88;5034943;27;100742;-29
2022/09/25 11:37:21;;;;;;;5.22;0.70;;;;;;;17.47;64.33;101694.13;5035186;27;96635;-28
2022/09/25 11:42:50;;;;;;;2.45;1.10;;;;;;;17.09;65.40;101687.88;5052573;27;97051;-28
2022/09/25 11:45:19;;;;;;;4.32;1.05;;;;;;;16.96;65.87;101684.28;5034717;27;101245;-31
2022/09/25 11:47:57;;;;;;;2.72;0.98;;;;;;;16.87;65.66;101683.09;5034405;27;97465;-30
2022/09/25 11:50:37;;;;;;;2.85;0.50;;;;;;;16.79;65.56;101680.09;5035117;27;96733;-29
2022/09/25 11:53:31;;;;;;;1.80;0.70;;;;;;;16.75;65.95;101684.00;5034558;27;101132;-29
2022/09/25 11:56:19;;;;;;;1.92;0.80;;;;;;;17.06;65.48;101679.00;5053007;27;97890;-29
2022/09/25 11:58:55;;;;;;;0.43;0.43;;;;;;;17.43;63.31;101677.06;5052527;27;96590;-29
2022/09/25 12:01:31;;;;;;;0.50;0.40;;;;;;;17.82;62.77;101683.19;5034634;27;97020;-29